Time;durP1;ratioP1;P1;durP2;ratioP2;P2;SDS_P1;SDS_P2;PMS_P1;PMS_P2;Temp;Humidity;BMP_temperature;BMP_pressure;BME280_temperature;BME280_humidity;BME280_pressure;Samples;Min_cycle;Max_cycle;Signal;HPM_P1;HPM_P2
2023/12/31 00:02:09;;;;;;;8.67;3.97;;;;;;;;;;4985490;28;20434;-84
2023/12/31 00:04:34;;;;;;;5.90;4.50;;;;;;;;;;4984059;28;20294;-86
2023/12/31 00:07:02;;;;;;;7.20;3.63;;;;;;;;;;4985535;28;20230;-85
2023/12/31 00:09:30;;;;;;;6.97;3.87;;;;;;;;;;4984291;28;20264;-84
2023/12/31 00:11:58;;;;;;;8.00;3.90;;;;;;;;;;4982252;28;20228;-85
2023/12/31 00:14:29;;;;;;;5.30;3.40;;;;;;;;;;4997300;28;20222;-86
2023/12/31 00:16:55;;;;;;;10.07;3.80;;;;;;;;;;4972483;28;20213;-85
2023/12/31 00:19:20;;;;;;;6.93;3.63;;;;;;;;;;4982764;28;20211;-85
2023/12/31 00:21:48;;;;;;;7.87;3.73;;;;;;;;;;4986068;28;20210;-88
2023/12/31 00:24:16;;;;;;;7.40;3.60;;;;;;;;;;4971463;28;20217;-86
2023/12/31 00:26:44;;;;;;;7.33;3.60;;;;;;;;;;4988984;28;21276;-85
2023/12/31 00:29:11;;;;;;;6.27;3.50;;;;;;;;;;4970189;28;20222;-85
2023/12/31 00:31:37;;;;;;;6.60;3.60;;;;;;;;;;4981856;28;20218;-87
2023/12/31 00:34:08;;;;;;;7.53;3.17;;;;;;;;;;4985979;28;20696;-85
2023/12/31 00:36:38;;;;;;;5.53;3.20;;;;;;;;;;4968416;28;20686;-88
2023/12/31 00:39:06;;;;;;;9.80;4.13;;;;;;;;;;4966267;28;20588;-84
2023/12/31 00:41:37;;;;;;;8.50;3.60;;;;;;;;;;4953059;28;20217;-84
2023/12/31 00:44:07;;;;;;;9.37;3.47;;;;;;;;;;4976433;28;20215;-85
2023/12/31 00:46:35;;;;;;;7.23;3.60;;;;;;;;;;4977879;28;20260;-85
2023/12/31 00:49:01;;;;;;;8.40;3.57;;;;;;;;;;4995310;28;20221;-87
2023/12/31 00:51:28;;;;;;;6.67;3.07;;;;;;;;;;4961383;28;20299;-86
2023/12/31 00:53:56;;;;;;;4.60;2.97;;;;;;;;;;4971965;28;20217;-85
2023/12/31 00:56:24;;;;;;;6.83;2.90;;;;;;;;;;4996491;28;20237;-86
2023/12/31 00:58:50;;;;;;;7.97;2.83;;;;;;;;;;5010552;28;20225;-87
2023/12/31 01:01:18;;;;;;;7.63;2.93;;;;;;;;;;4996413;28;20304;-86
2023/12/31 01:03:50;;;;;;;4.30;2.30;;;;;;;;;;4992103;28;20226;-87
2023/12/31 01:06:18;;;;;;;10.40;2.40;;;;;;;;;;4994184;28;20221;-86
2023/12/31 01:08:46;;;;;;;4.27;2.40;;;;;;;;;;4991611;28;20222;-87
2023/12/31 01:11:16;;;;;;;4.77;2.40;;;;;;;;;;4988546;28;20239;-85
2023/12/31 01:13:42;;;;;;;5.57;2.63;;;;;;;;;;4990885;28;20257;-88
2023/12/31 01:16:07;;;;;;;7.10;2.60;;;;;;;;;;4974008;28;20231;-87
2023/12/31 01:18:33;;;;;;;11.40;2.90;;;;;;;;;;4987801;28;21250;-86
2023/12/31 01:21:02;;;;;;;5.73;2.43;;;;;;;;;;4993270;28;20225;-84
2023/12/31 01:23:27;;;;;;;8.30;2.70;;;;;;;;;;4957543;28;20679;-86
2023/12/31 01:25:54;;;;;;;4.33;2.13;;;;;;;;;;4986674;28;20228;-84
2023/12/31 01:28:19;;;;;;;6.60;2.17;;;;;;;;;;4985771;28;20236;-86
2023/12/31 01:30:47;;;;;;;5.97;2.37;;;;;;;;;;4994019;28;20209;-87
2023/12/31 01:33:15;;;;;;;6.17;2.10;;;;;;;;;;4975446;28;20252;-89
2023/12/31 01:35:43;;;;;;;3.30;2.30;;;;;;;;;;4996645;28;20247;-87
2023/12/31 01:38:11;;;;;;;6.63;2.67;;;;;;;;;;4993319;28;20205;-86
2023/12/31 01:40:37;;;;;;;3.80;2.03;;;;;;;;;;4973660;28;20319;-86
2023/12/31 01:43:03;;;;;;;5.43;1.90;;;;;;;;;;4969444;28;20288;-86
2023/12/31 01:45:31;;;;;;;4.07;2.30;;;;;;;;;;4968943;28;20221;-87
2023/12/31 01:47:59;;;;;;;4.43;2.20;;;;;;;;;;4983632;28;20218;-88
2023/12/31 01:50:27;;;;;;;5.13;2.23;;;;;;;;;;4964269;28;20226;-87
2023/12/31 01:52:55;;;;;;;5.50;2.00;;;;;;;;;;4965705;28;20230;-86
2023/12/31 01:55:20;;;;;;;4.53;2.30;;;;;;;;;;4952490;28;20224;-85
2023/12/31 01:57:52;;;;;;;5.20;2.30;;;;;;;;;;4963989;28;20225;-86
2023/12/31 02:00:20;;;;;;;5.10;1.90;;;;;;;;;;4979116;28;20226;-88
2023/12/31 02:02:47;;;;;;;4.80;2.00;;;;;;;;;;4988520;28;20705;-85
2023/12/31 02:05:16;;;;;;;10.83;8.83;;;;;;;;;;4966725;28;20311;-84
2023/12/31 02:07:43;;;;;;;5.10;2.77;;;;;;;;;;4990282;28;20208;-89
2023/12/31 02:10:11;;;;;;;7.87;2.47;;;;;;;;;;4988903;28;20218;-86
2023/12/31 02:12:42;;;;;;;3.00;2.10;;;;;;;;;;4963676;28;20238;-87
2023/12/31 02:15:09;;;;;;;7.13;2.70;;;;;;;;;;4972993;28;20217;-85
2023/12/31 02:17:35;;;;;;;7.03;2.50;;;;;;;;;;4983450;28;20245;-84
2023/12/31 02:20:04;;;;;;;4.20;1.80;;;;;;;;;;4966985;28;20280;-86
2023/12/31 02:22:30;;;;;;;4.03;1.83;;;;;;;;;;4982340;28;20234;-85
2023/12/31 02:25:01;;;;;;;5.70;1.87;;;;;;;;;;4971611;28;20277;-86
2023/12/31 02:27:29;;;;;;;4.97;1.87;;;;;;;;;;4963463;28;20721;-86
2023/12/31 02:30:02;;;;;;;4.63;2.10;;;;;;;;;;4982862;28;20222;-86
2023/12/31 02:32:32;;;;;;;3.37;1.63;;;;;;;;;;4969786;28;20243;-86
2023/12/31 02:34:58;;;;;;;4.07;1.80;;;;;;;;;;4959561;28;20708;-86
2023/12/31 02:37:26;;;;;;;4.00;1.73;;;;;;;;;;4953345;28;20220;-85
2023/12/31 02:39:54;;;;;;;5.47;1.90;;;;;;;;;;4966923;28;20295;-86
2023/12/31 02:42:23;;;;;;;4.60;1.60;;;;;;;;;;4949355;28;20846;-85
2023/12/31 02:44:53;;;;;;;3.03;1.77;;;;;;;;;;4985776;28;20228;-85
2023/12/31 02:47:21;;;;;;;1.90;1.30;;;;;;;;;;4976333;28;20217;-86
2023/12/31 02:49:46;;;;;;;2.80;1.80;;;;;;;;;;4975197;28;20221;-86
2023/12/31 02:52:14;;;;;;;3.57;2.00;;;;;;;;;;4988533;28;20230;-87
2023/12/31 02:54:43;;;;;;;3.80;1.67;;;;;;;;;;4973372;28;20225;-86
2023/12/31 02:57:08;;;;;;;6.47;1.73;;;;;;;;;;4975794;28;20308;-85
2023/12/31 02:59:34;;;;;;;3.00;1.70;;;;;;;;;;4977766;28;20633;-85
2023/12/31 03:01:59;;;;;;;5.93;1.80;;;;;;;;;;4974161;28;20219;-85
2023/12/31 03:04:25;;;;;;;3.33;1.50;;;;;;;;;;4945832;28;20221;-85
2023/12/31 03:06:53;;;;;;;4.77;1.90;;;;;;;;;;4951531;28;20232;-85
2023/12/31 03:09:20;;;;;;;4.57;1.67;;;;;;;;;;4977039;28;20217;-85
2023/12/31 03:11:50;;;;;;;3.97;1.67;;;;;;;;;;4992867;28;20279;-85
2023/12/31 03:14:16;;;;;;;5.23;1.80;;;;;;;;;;4974626;28;20226;-85
2023/12/31 03:16:45;;;;;;;4.60;1.57;;;;;;;;;;4961417;28;20730;-87
2023/12/31 03:19:14;;;;;;;3.47;1.57;;;;;;;;;;4960668;28;20329;-85
2023/12/31 03:21:42;;;;;;;4.73;1.80;;;;;;;;;;4954001;28;20229;-86
2023/12/31 03:24:10;;;;;;;4.80;2.00;;;;;;;;;;4975683;28;20225;-85
2023/12/31 03:26:36;;;;;;;7.47;2.07;;;;;;;;;;4976739;28;20225;-84
2023/12/31 03:29:04;;;;;;;3.27;1.77;;;;;;;;;;4972159;28;20245;-85
2023/12/31 03:31:30;;;;;;;4.73;1.80;;;;;;;;;;4977139;28;20272;-86
2023/12/31 03:33:58;;;;;;;5.23;1.73;;;;;;;;;;4973222;28;20237;-85
2023/12/31 03:36:24;;;;;;;3.90;1.90;;;;;;;;;;4990617;28;20225;-85
2023/12/31 03:38:49;;;;;;;6.83;1.80;;;;;;;;;;4973345;28;20230;-86
2023/12/31 03:41:15;;;;;;;3.70;1.50;;;;;;;;;;4978245;28;20225;-86
2023/12/31 03:43:42;;;;;;;3.17;1.67;;;;;;;;;;4975901;28;20237;-85
2023/12/31 03:46:10;;;;;;;4.23;1.83;;;;;;;;;;4961372;28;20221;-87
2023/12/31 03:48:37;;;;;;;10.37;2.50;;;;;;;;;;4947614;28;20229;-85
2023/12/31 03:51:07;;;;;;;5.97;2.13;;;;;;;;;;4987702;28;20244;-86
2023/12/31 03:53:33;;;;;;;4.13;2.30;;;;;;;;;;4984475;28;20245;-85
2023/12/31 03:56:02;;;;;;;5.03;2.20;;;;;;;;;;4950021;28;20232;-87
2023/12/31 04:02:16;;;;;;;3.80;2.77;;;;;;;;;;4986686;28;20717;-85
2023/12/31 04:04:42;;;;;;;8.53;2.60;;;;;;;;;;4992830;28;20312;-86
2023/12/31 04:07:09;;;;;;;4.73;2.50;;;;;;;;;;4975481;28;20221;-85
2023/12/31 04:09:35;;;;;;;3.73;2.30;;;;;;;;;;4973577;28;20586;-85
2023/12/31 04:12:05;;;;;;;2.17;1.83;;;;;;;;;;4977704;28;20235;-85
2023/12/31 04:14:33;;;;;;;4.83;2.37;;;;;;;;;;4955766;28;20228;-86
2023/12/31 04:17:01;;;;;;;4.90;2.30;;;;;;;;;;4965420;28;20732;-86
2023/12/31 04:19:27;;;;;;;4.40;2.47;;;;;;;;;;4972774;28;20218;-86
2023/12/31 04:21:52;;;;;;;3.67;2.03;;;;;;;;;;4973556;28;20525;-86
2023/12/31 04:24:18;;;;;;;3.23;2.37;;;;;;;;;;4980980;28;20222;-86
2023/12/31 04:26:49;;;;;;;3.20;2.27;;;;;;;;;;4998712;28;20232;-85
2023/12/31 04:29:17;;;;;;;3.27;2.20;;;;;;;;;;4945717;28;20241;-85
2023/12/31 04:31:48;;;;;;;3.30;1.70;;;;;;;;;;4982938;28;20284;-85
2023/12/31 04:34:18;;;;;;;2.77;1.70;;;;;;;;;;4971707;28;20264;-87
2023/12/31 04:36:46;;;;;;;4.57;2.00;;;;;;;;;;4979165;28;20233;-85
2023/12/31 04:39:12;;;;;;;4.13;1.90;;;;;;;;;;4977911;28;20675;-86
2023/12/31 04:41:40;;;;;;;3.23;1.87;;;;;;;;;;4977335;28;20252;-85
2023/12/31 04:44:05;;;;;;;5.37;2.00;;;;;;;;;;4963539;28;20229;-88
2023/12/31 04:46:31;;;;;;;2.60;1.60;;;;;;;;;;4976817;28;20611;-86
2023/12/31 04:48:56;;;;;;;4.47;1.70;;;;;;;;;;4960500;28;20226;-86
2023/12/31 04:51:24;;;;;;;3.47;1.77;;;;;;;;;;4993172;28;20308;-86
2023/12/31 04:53:52;;;;;;;5.63;1.80;;;;;;;;;;5006632;28;20238;-86
2023/12/31 04:56:19;;;;;;;4.53;2.07;;;;;;;;;;4995696;28;20221;-86
2023/12/31 04:58:46;;;;;;;3.00;1.73;;;;;;;;;;4977441;28;20604;-86
2023/12/31 05:01:14;;;;;;;2.73;1.83;;;;;;;;;;4963716;28;20214;-86
2023/12/31 05:03:49;;;;;;;3.50;1.80;;;;;;;;;;4965645;28;20239;-85
2023/12/31 05:06:14;;;;;;;2.47;1.60;;;;;;;;;;5006041;28;20230;-85
2023/12/31 05:08:42;;;;;;;4.33;1.83;;;;;;;;;;4992188;28;20699;-85
2023/12/31 05:11:14;;;;;;;2.40;1.53;;;;;;;;;;4977904;28;20225;-83
2023/12/31 05:13:43;;;;;;;2.10;1.37;;;;;;;;;;5000675;28;20251;-83
2023/12/31 05:16:15;;;;;;;2.33;1.40;;;;;;;;;;5006795;28;20210;-85
2023/12/31 05:18:43;;;;;;;2.73;1.40;;;;;;;;;;5019858;28;20221;-85
2023/12/31 05:21:09;;;;;;;1.80;1.40;;;;;;;;;;5012035;28;20217;-84
2023/12/31 05:23:37;;;;;;;1.47;1.37;;;;;;;;;;4995412;28;20745;-85
2023/12/31 05:26:05;;;;;;;4.30;1.37;;;;;;;;;;4967092;28;20234;-87
2023/12/31 05:28:33;;;;;;;1.90;1.30;;;;;;;;;;4961157;28;20236;-85
2023/12/31 05:30:58;;;;;;;3.07;1.40;;;;;;;;;;4997810;28;20237;-86
2023/12/31 05:33:24;;;;;;;3.57;1.43;;;;;;;;;;5001622;28;20233;-85
2023/12/31 05:35:50;;;;;;;3.40;2.40;;;;;;;;;;5011213;28;20256;-85
2023/12/31 05:38:18;;;;;;;6.60;2.63;;;;;;;;;;4979187;28;20311;-84
2023/12/31 05:40:46;;;;;;;3.33;1.67;;;;;;;;;;4981180;28;20233;-84
2023/12/31 05:43:12;;;;;;;3.07;1.47;;;;;;;;;;4994184;28;20241;-84
2023/12/31 05:45:37;;;;;;;3.40;1.63;;;;;;;;;;4997693;28;20226;-85
2023/12/31 05:48:03;;;;;;;1.57;1.20;;;;;;;;;;4978036;28;20213;-84
2023/12/31 05:50:29;;;;;;;3.07;1.40;;;;;;;;;;4996185;28;20332;-86
2023/12/31 05:52:55;;;;;;;2.43;1.40;;;;;;;;;;4987172;28;20229;-84
2023/12/31 05:55:20;;;;;;;2.17;1.30;;;;;;;;;;4994299;28;20228;-85
2023/12/31 05:57:46;;;;;;;2.87;1.50;;;;;;;;;;5008624;28;20276;-84
2023/12/31 06:00:14;;;;;;;3.93;1.40;;;;;;;;;;4991400;28;20297;-85
2023/12/31 06:02:42;;;;;;;2.17;1.57;;;;;;;;;;4979405;28;20983;-85
2023/12/31 06:05:09;;;;;;;2.20;1.43;;;;;;;;;;4981986;28;20229;-85
2023/12/31 06:07:36;;;;;;;2.77;1.33;;;;;;;;;;4958554;28;20224;-85
2023/12/31 06:10:03;;;;;;;2.30;1.53;;;;;;;;;;4998221;28;20221;-85
2023/12/31 06:12:31;;;;;;;2.23;1.70;;;;;;;;;;4989890;28;20253;-84
2023/12/31 06:14:59;;;;;;;3.30;1.77;;;;;;;;;;4958322;28;20797;-84
2023/12/31 06:17:27;;;;;;;2.17;1.50;;;;;;;;;;4976159;28;20205;-85
2023/12/31 06:19:52;;;;;;;3.23;1.60;;;;;;;;;;4976385;28;20219;-84
2023/12/31 06:22:18;;;;;;;3.70;1.40;;;;;;;;;;4974432;28;20213;-86
2023/12/31 06:24:44;;;;;;;2.80;1.60;;;;;;;;;;5001594;28;20238;-86
2023/12/31 06:27:09;;;;;;;2.33;1.57;;;;;;;;;;4976530;28;20237;-84
2023/12/31 06:29:35;;;;;;;3.80;1.50;;;;;;;;;;4963510;28;20518;-84
2023/12/31 06:32:00;;;;;;;3.23;1.40;;;;;;;;;;5010967;28;20221;-88
2023/12/31 06:34:26;;;;;;;2.17;1.47;;;;;;;;;;4973386;28;20229;-84
2023/12/31 06:36:54;;;;;;;1.87;1.30;;;;;;;;;;4997909;28;20214;-83
2023/12/31 06:39:24;;;;;;;4.37;1.70;;;;;;;;;;4994377;28;20281;-83
2023/12/31 06:41:50;;;;;;;1.57;1.27;;;;;;;;;;4994292;28;20218;-85
2023/12/31 06:44:16;;;;;;;3.77;1.70;;;;;;;;;;4953240;28;20868;-84
2023/12/31 06:46:42;;;;;;;2.87;1.57;;;;;;;;;;4965834;28;20233;-87
2023/12/31 06:49:07;;;;;;;2.40;1.43;;;;;;;;;;4992754;28;20280;-84
2023/12/31 06:51:33;;;;;;;2.57;1.47;;;;;;;;;;4994618;28;20237;-84
2023/12/31 06:53:59;;;;;;;2.67;1.40;;;;;;;;;;4994105;28;20295;-83
2023/12/31 06:56:24;;;;;;;2.73;1.40;;;;;;;;;;4979158;28;20240;-83
2023/12/31 06:58:50;;;;;;;1.87;1.30;;;;;;;;;;4993984;28;20225;-84
2023/12/31 07:01:22;;;;;;;3.67;1.50;;;;;;;;;;4968995;28;20220;-83
2023/12/31 07:03:48;;;;;;;2.00;1.20;;;;;;;;;;4995022;28;20269;-84
2023/12/31 07:06:16;;;;;;;3.37;1.40;;;;;;;;;;5008862;28;20227;-83
2023/12/31 07:08:44;;;;;;;3.87;1.97;;;;;;;;;;4976651;28;20241;-83
2023/12/31 07:11:14;;;;;;;1.97;1.37;;;;;;;;;;4980933;28;20233;-87
2023/12/31 07:13:40;;;;;;;5.10;1.60;;;;;;;;;;4949007;28;20233;-87
2023/12/31 07:16:06;;;;;;;1.33;1.10;;;;;;;;;;4992253;28;20220;-88
2023/12/31 07:18:35;;;;;;;2.33;1.30;;;;;;;;;;4973154;28;20227;-86
2023/12/31 07:21:06;;;;;;;2.77;1.40;;;;;;;;;;4991116;28;20221;-85
2023/12/31 07:23:33;;;;;;;4.83;1.20;;;;;;;;;;4963597;28;20547;-85
2023/12/31 07:25:58;;;;;;;1.53;1.20;;;;;;;;;;4984703;28;20224;-84
2023/12/31 07:28:29;;;;;;;3.67;1.20;;;;;;;;;;4989994;28;20613;-85
2023/12/31 07:30:57;;;;;;;2.47;1.17;;;;;;;;;;4983144;28;20228;-86
2023/12/31 07:33:28;;;;;;;3.60;1.20;;;;;;;;;;4988111;28;20229;-87
2023/12/31 07:35:54;;;;;;;2.23;1.30;;;;;;;;;;4980889;28;20289;-85
2023/12/31 07:38:23;;;;;;;2.27;1.30;;;;;;;;;;4984691;28;20228;-85
2023/12/31 07:40:48;;;;;;;2.23;1.30;;;;;;;;;;4974896;28;20217;-87
2023/12/31 07:43:19;;;;;;;5.20;1.30;;;;;;;;;;4990982;28;20235;-88
2023/12/31 07:45:48;;;;;;;1.43;1.27;;;;;;;;;;4974487;28;20317;-87
2023/12/31 07:48:14;;;;;;;4.10;1.60;;;;;;;;;;4990668;28;20275;-85
2023/12/31 07:50:40;;;;;;;2.67;1.40;;;;;;;;;;4982900;28;20229;-87
2023/12/31 07:53:05;;;;;;;3.67;1.40;;;;;;;;;;4982292;28;20703;-86
2023/12/31 07:55:31;;;;;;;4.27;1.53;;;;;;;;;;4968473;28;20232;-85
2023/12/31 07:58:01;;;;;;;3.20;1.40;;;;;;;;;;4976816;28;20301;-85
2023/12/31 08:00:29;;;;;;;3.80;1.33;;;;;;;;;;4952400;28;20217;-86
2023/12/31 08:02:55;;;;;;;1.70;1.20;;;;;;;;;;4980573;28;20296;-87
2023/12/31 08:05:21;;;;;;;1.40;1.30;;;;;;;;;;4996223;28;20225;-87
2023/12/31 08:07:48;;;;;;;1.73;1.33;;;;;;;;;;4976196;28;20222;-85
2023/12/31 08:10:18;;;;;;;1.90;1.40;;;;;;;;;;4983682;28;20233;-86
2023/12/31 08:12:46;;;;;;;1.90;1.30;;;;;;;;;;4962389;28;20244;-87
2023/12/31 08:15:12;;;;;;;1.83;1.23;;;;;;;;;;4962053;28;20226;-87
2023/12/31 08:17:38;;;;;;;3.63;1.30;;;;;;;;;;4977961;28;20228;-86
2023/12/31 08:20:06;;;;;;;2.50;1.50;;;;;;;;;;4984434;28;20221;-85
2023/12/31 08:22:34;;;;;;;1.43;1.30;;;;;;;;;;4987090;28;20218;-85
2023/12/31 08:25:00;;;;;;;1.73;1.53;;;;;;;;;;4954933;28;20230;-86
2023/12/31 08:27:26;;;;;;;2.77;1.30;;;;;;;;;;4947054;28;20645;-85
2023/12/31 08:29:56;;;;;;;1.90;1.43;;;;;;;;;;4964961;28;20222;-85
2023/12/31 08:32:30;;;;;;;4.67;1.47;;;;;;;;;;4980304;28;20245;-85
2023/12/31 08:34:56;;;;;;;2.10;1.43;;;;;;;;;;4996212;28;20236;-84
2023/12/31 08:37:24;;;;;;;6.63;1.17;;;;;;;;;;4990256;28;20217;-83
2023/12/31 08:39:53;;;;;;;5.17;1.80;;;;;;;;;;4978246;28;20601;-86
2023/12/31 08:42:18;;;;;;;2.40;1.90;;;;;;;;;;4971916;28;20241;-84
2023/12/31 08:44:47;;;;;;;1.77;1.30;;;;;;;;;;4979654;28;20221;-86
2023/12/31 08:47:13;;;;;;;3.77;1.50;;;;;;;;;;4992898;28;20221;-85
2023/12/31 08:49:40;;;;;;;2.37;1.57;;;;;;;;;;4979247;28;20702;-85
2023/12/31 08:52:08;;;;;;;3.87;1.83;;;;;;;;;;4962815;28;20225;-85
2023/12/31 08:54:34;;;;;;;2.17;1.50;;;;;;;;;;4961176;28;20226;-85
2023/12/31 08:56:59;;;;;;;5.90;4.40;;;;;;;;;;4960956;28;20237;-87
2023/12/31 08:59:25;;;;;;;2.77;1.63;;;;;;;;;;4963968;28;20235;-83
2023/12/31 09:01:51;;;;;;;1.63;1.30;;;;;;;;;;4980848;28;20304;-83
2023/12/31 09:04:19;;;;;;;1.93;1.47;;;;;;;;;;4974332;28;20224;-85
2023/12/31 09:06:47;;;;;;;9.33;7.00;;;;;;;;;;4977189;28;20229;-84
2023/12/31 09:09:15;;;;;;;5.27;3.63;;;;;;;;;;4986926;28;20292;-83
2023/12/31 09:11:51;;;;;;;6.00;3.43;;;;;;;;;;4974917;28;20221;-86
2023/12/31 09:14:16;;;;;;;3.73;1.60;;;;;;;;;;4974872;28;20225;-84
2023/12/31 09:16:42;;;;;;;3.27;2.47;;;;;;;;;;4943215;28;20217;-84
2023/12/31 09:19:09;;;;;;;3.43;2.13;;;;;;;;;;4986179;28;20609;-83
2023/12/31 09:21:35;;;;;;;2.77;1.90;;;;;;;;;;4977197;28;20626;-83
2023/12/31 09:24:00;;;;;;;2.80;2.50;;;;;;;;;;4961327;28;20702;-84
2023/12/31 09:26:32;;;;;;;1.40;1.07;;;;;;;;;;4960566;28;20225;-85
2023/12/31 09:29:01;;;;;;;1.70;1.10;;;;;;;;;;4968830;28;20221;-87
2023/12/31 09:31:29;;;;;;;1.40;1.20;;;;;;;;;;4989135;28;20232;-84
2023/12/31 09:33:55;;;;;;;2.20;2.00;;;;;;;;;;4980034;28;20761;-84
2023/12/31 09:36:21;;;;;;;4.07;1.30;;;;;;;;;;4984326;28;20709;-85
2023/12/31 09:38:48;;;;;;;1.63;1.20;;;;;;;;;;4976808;28;20605;-87
2023/12/31 09:41:22;;;;;;;2.43;1.20;;;;;;;;;;4958107;28;20234;-86
2023/12/31 09:43:57;;;;;;;2.17;1.23;;;;;;;;;;4977053;28;20217;-86
2023/12/31 09:46:31;;;;;;;1.40;0.93;;;;;;;;;;4940637;28;20225;-85
2023/12/31 09:49:02;;;;;;;1.73;1.13;;;;;;;;;;4961863;28;20223;-84
2023/12/31 09:51:28;;;;;;;2.03;1.20;;;;;;;;;;4977537;28;20224;-86
2023/12/31 09:53:53;;;;;;;2.03;1.20;;;;;;;;;;4993453;28;20640;-86
2023/12/31 09:56:22;;;;;;;1.97;1.30;;;;;;;;;;4957414;28;20224;-85
2023/12/31 09:58:50;;;;;;;1.50;1.20;;;;;;;;;;4959559;28;20229;-85
2023/12/31 10:01:19;;;;;;;2.27;1.17;;;;;;;;;;4977323;28;20228;-85
2023/12/31 10:03:47;;;;;;;1.80;1.00;;;;;;;;;;4989264;28;20232;-86
2023/12/31 10:06:15;;;;;;;1.40;1.10;;;;;;;;;;4948627;28;20225;-85
2023/12/31 10:08:45;;;;;;;1.67;1.23;;;;;;;;;;4939978;28;20659;-84
2023/12/31 10:11:15;;;;;;;2.53;1.23;;;;;;;;;;4976717;28;20223;-84
2023/12/31 10:13:43;;;;;;;0.83;0.83;;;;;;;;;;4959275;28;20237;-83
2023/12/31 10:16:15;;;;;;;1.80;1.23;;;;;;;;;;4972123;28;20210;-85
2023/12/31 10:18:45;;;;;;;1.10;1.00;;;;;;;;;;4956277;28;20286;-85
2023/12/31 10:21:14;;;;;;;1.73;1.00;;;;;;;;;;4961495;28;20313;-85
2023/12/31 10:23:39;;;;;;;1.30;1.20;;;;;;;;;;4984763;28;20237;-84
2023/12/31 10:26:05;;;;;;;1.27;1.10;;;;;;;;;;4950270;28;20214;-86
2023/12/31 10:28:31;;;;;;;2.40;1.13;;;;;;;;;;4960567;28;20225;-85
2023/12/31 10:30:57;;;;;;;1.77;1.03;;;;;;;;;;4975237;28;20213;-87
2023/12/31 10:33:27;;;;;;;1.20;1.10;;;;;;;;;;4978694;28;20240;-82
2023/12/31 10:36:03;;;;;;;1.43;1.13;;;;;;;;;;4985856;28;20237;-86
2023/12/31 10:38:28;;;;;;;1.10;1.00;;;;;;;;;;5001489;28;20221;-86
2023/12/31 10:41:05;;;;;;;1.00;0.87;;;;;;;;;;4960955;28;20217;-85
2023/12/31 10:43:38;;;;;;;1.63;1.10;;;;;;;;;;4974994;28;20364;-83
2023/12/31 10:46:04;;;;;;;1.10;1.00;;;;;;;;;;4971358;28;20213;-86
2023/12/31 10:48:34;;;;;;;3.73;1.20;;;;;;;;;;4973380;28;20269;-87
2023/12/31 10:51:01;;;;;;;2.07;1.20;;;;;;;;;;4971678;28;20273;-84
2023/12/31 10:53:27;;;;;;;1.80;1.20;;;;;;;;;;4955052;28;20596;-78
2023/12/31 10:55:53;;;;;;;1.10;1.00;;;;;;;;;;4959646;28;20260;-78
2023/12/31 10:58:21;;;;;;;1.10;1.00;;;;;;;;;;4985289;28;20217;-77
2023/12/31 11:00:46;;;;;;;1.63;1.00;;;;;;;;;;4964856;28;20226;-78
2023/12/31 11:03:13;;;;;;;1.20;1.10;;;;;;;;;;4970764;28;20244;-78
2023/12/31 11:05:42;;;;;;;1.53;1.10;;;;;;;;;;4969578;28;20222;-78
2023/12/31 11:08:08;;;;;;;1.10;1.00;;;;;;;;;;4966093;28;20229;-76
2023/12/31 11:10:33;;;;;;;1.77;1.10;;;;;;;;;;4972566;28;20229;-80
2023/12/31 11:12:59;;;;;;;1.17;1.07;;;;;;;;;;4971618;28;20287;-79
2023/12/31 11:15:26;;;;;;;1.20;1.10;;;;;;;;;;4984801;28;20226;-80
2023/12/31 11:18:22;;;;;;;3.47;1.10;;;;;;;;;;4974506;28;20285;-79
2023/12/31 11:21:09;;;;;;;1.00;1.00;;;;;;;;;;5004132;28;20224;-80
2023/12/31 11:23:59;;;;;;;2.20;1.10;;;;;;;;;;5002642;28;20236;-81
2023/12/31 11:26:24;;;;;;;3.57;1.43;;;;;;;;;;4951962;28;20245;-80
2023/12/31 11:28:50;;;;;;;1.77;0.87;;;;;;;;;;4972741;28;20229;-79
2023/12/31 11:31:15;;;;;;;2.03;1.30;;;;;;;;;;4971284;28;20223;-78
2023/12/31 11:33:41;;;;;;;1.73;1.30;;;;;;;;;;4972193;28;20225;-79
2023/12/31 11:36:14;;;;;;;1.00;1.00;;;;;;;;;;4972649;28;20624;-79
2023/12/31 11:38:51;;;;;;;1.33;1.10;;;;;;;;;;4987256;28;20291;-80
2023/12/31 11:41:20;;;;;;;1.07;0.97;;;;;;;;;;5002884;28;20225;-79
2023/12/31 11:43:45;;;;;;;1.27;1.17;;;;;;;;;;4987950;28;20233;-81
2023/12/31 11:46:32;;;;;;;1.60;1.40;;;;;;;;;;4988104;28;20221;-83
2023/12/31 11:48:58;;;;;;;1.57;1.23;;;;;;;;;;4975096;28;20220;-81
2023/12/31 11:51:48;;;;;;;1.40;1.30;;;;;;;;;;4969528;28;20217;-81
2023/12/31 11:54:17;;;;;;;1.53;1.30;;;;;;;;;;4988654;28;20233;-79
2023/12/31 11:56:45;;;;;;;1.30;1.20;;;;;;;;;;4988374;28;20253;-81
2023/12/31 11:59:11;;;;;;;1.17;1.07;;;;;;;;;;4972165;28;20216;-80
2023/12/31 12:01:45;;;;;;;1.40;1.20;;;;;;;;;;4973259;28;20251;-80
2023/12/31 12:04:11;;;;;;;2.50;1.27;;;;;;;;;;4956931;28;20225;-81
2023/12/31 12:06:37;;;;;;;1.97;1.30;;;;;;;;;;4988298;28;20283;-80
2023/12/31 12:09:03;;;;;;;3.13;1.20;;;;;;;;;;4971537;28;20217;-80
2023/12/31 12:11:28;;;;;;;2.33;1.47;;;;;;;;;;4955867;28;20225;-80
2023/12/31 12:13:56;;;;;;;2.20;1.23;;;;;;;;;;4986627;28;20219;-79
2023/12/31 12:16:22;;;;;;;1.33;1.10;;;;;;;;;;4987568;28;20214;-79
2023/12/31 12:18:59;;;;;;;1.20;1.13;;;;;;;;;;4973836;28;20284;-82
2023/12/31 12:21:25;;;;;;;3.23;1.43;;;;;;;;;;4977611;28;20248;-79
2023/12/31 12:23:53;;;;;;;1.13;1.13;;;;;;;;;;4990104;28;20231;-80
2023/12/31 12:26:19;;;;;;;2.70;1.30;;;;;;;;;;4996432;28;20225;-80
2023/12/31 12:28:55;;;;;;;1.20;1.10;;;;;;;;;;4978819;28;20221;-78
2023/12/31 12:31:23;;;;;;;1.87;1.30;;;;;;;;;;4960008;28;20216;-79
2023/12/31 12:33:56;;;;;;;3.37;1.50;;;;;;;;;;4958705;28;20241;-82
2023/12/31 12:36:27;;;;;;;7.83;1.60;;;;;;;;;;4972453;28;20589;-81
2023/12/31 12:38:52;;;;;;;1.23;1.13;;;;;;;;;;4974836;28;20221;-81
2023/12/31 12:41:21;;;;;;;1.30;1.20;;;;;;;;;;4973347;28;20224;-80
2023/12/31 12:43:50;;;;;;;1.40;1.30;;;;;;;;;;4973686;28;20241;-81
2023/12/31 12:46:16;;;;;;;1.23;1.13;;;;;;;;;;4999787;28;20229;-79
2023/12/31 12:48:48;;;;;;;1.30;1.20;;;;;;;;;;4980501;28;20225;-78
2023/12/31 12:51:16;;;;;;;1.40;1.30;;;;;;;;;;4991801;28;20243;-79
2023/12/31 12:53:44;;;;;;;1.57;1.47;;;;;;;;;;4987594;28;20329;-79
2023/12/31 12:56:10;;;;;;;1.40;1.30;;;;;;;;;;4990083;28;20233;-80
2023/12/31 12:58:36;;;;;;;2.20;1.30;;;;;;;;;;4974019;28;20237;-80
2023/12/31 13:01:03;;;;;;;2.00;1.47;;;;;;;;;;4971132;28;20672;-80
2023/12/31 13:03:29;;;;;;;4.03;1.60;;;;;;;;;;4932845;28;20698;-79
2023/12/31 13:05:54;;;;;;;1.83;1.20;;;;;;;;;;4954280;28;20221;-79
2023/12/31 13:08:22;;;;;;;1.50;1.07;;;;;;;;;;4987180;28;20528;-81
2023/12/31 13:10:48;;;;;;;3.27;1.20;;;;;;;;;;4971378;28;20226;-81
2023/12/31 13:13:13;;;;;;;1.93;1.40;;;;;;;;;;4954428;28;20218;-80
2023/12/31 13:15:41;;;;;;;1.23;1.20;;;;;;;;;;4974175;28;20233;-79
2023/12/31 13:18:07;;;;;;;1.50;1.40;;;;;;;;;;4999998;28;20221;-81
2023/12/31 13:20:32;;;;;;;1.43;1.33;;;;;;;;;;4988979;28;20235;-80
2023/12/31 13:22:58;;;;;;;1.67;1.57;;;;;;;;;;4958064;28;20213;-81
2023/12/31 13:25:30;;;;;;;1.37;1.27;;;;;;;;;;4980212;28;20221;-80
2023/12/31 13:27:56;;;;;;;1.73;1.63;;;;;;;;;;4959096;28;20221;-81
2023/12/31 13:30:26;;;;;;;1.60;1.50;;;;;;;;;;4956206;28;20221;-81
2023/12/31 13:32:51;;;;;;;1.70;1.20;;;;;;;;;;4975493;28;20234;-80
2023/12/31 13:35:17;;;;;;;1.90;1.80;;;;;;;;;;4972388;28;20995;-80
2023/12/31 13:37:42;;;;;;;1.50;1.40;;;;;;;;;;4943018;28;20639;-82
2023/12/31 13:40:08;;;;;;;2.00;1.63;;;;;;;;;;4974915;28;20225;-80
2023/12/31 13:42:36;;;;;;;1.93;1.73;;;;;;;;;;4977029;28;20252;-80
2023/12/31 13:45:04;;;;;;;2.53;1.67;;;;;;;;;;4944418;28;20561;-81
2023/12/31 13:47:32;;;;;;;1.90;1.80;;;;;;;;;;4973888;28;20707;-80
2023/12/31 13:49:57;;;;;;;1.70;1.60;;;;;;;;;;4973110;28;20229;-79
2023/12/31 13:52:27;;;;;;;1.60;1.50;;;;;;;;;;4974969;28;20230;-80
2023/12/31 13:54:54;;;;;;;3.43;3.20;;;;;;;;;;4978006;28;20240;-79
2023/12/31 13:57:24;;;;;;;15.40;12.97;;;;;;;;;;4994231;28;20313;-81
2023/12/31 13:59:50;;;;;;;6.30;5.70;;;;;;;;;;4987277;28;20313;-81
2023/12/31 14:02:16;;;;;;;2.43;2.23;;;;;;;;;;4973238;28;20225;-79
2023/12/31 14:04:45;;;;;;;3.40;2.33;;;;;;;;;;4989575;28;20229;-80
2023/12/31 14:07:11;;;;;;;1.90;1.80;;;;;;;;;;4974047;28;20948;-81
2023/12/31 14:09:38;;;;;;;1.87;1.73;;;;;;;;;;4987521;28;20225;-82
2023/12/31 14:12:06;;;;;;;1.80;1.70;;;;;;;;;;4991237;28;20275;-80
2023/12/31 14:14:32;;;;;;;1.80;1.70;;;;;;;;;;4989966;28;20325;-80
2023/12/31 14:16:57;;;;;;;1.93;1.70;;;;;;;;;;4971890;28;20225;-80
2023/12/31 14:19:23;;;;;;;1.73;1.60;;;;;;;;;;4970245;28;20232;-81
2023/12/31 14:21:49;;;;;;;1.90;1.80;;;;;;;;;;4952118;28;20225;-80
2023/12/31 14:24:14;;;;;;;2.57;2.00;;;;;;;;;;4971194;28;20217;-80
2023/12/31 14:26:41;;;;;;;1.93;1.83;;;;;;;;;;4974285;28;20233;-79
2023/12/31 14:29:07;;;;;;;2.30;1.93;;;;;;;;;;4967959;28;20240;-80
2023/12/31 14:31:32;;;;;;;2.00;1.53;;;;;;;;;;5005371;28;20229;-80
2023/12/31 14:33:58;;;;;;;1.93;1.67;;;;;;;;;;4970096;28;20344;-80
2023/12/31 14:36:26;;;;;;;1.57;1.43;;;;;;;;;;4970575;28;20765;-80
2023/12/31 14:38:52;;;;;;;2.30;1.63;;;;;;;;;;4973193;28;20247;-81
2023/12/31 14:41:17;;;;;;;1.40;1.30;;;;;;;;;;4986716;28;20694;-80
2023/12/31 14:43:43;;;;;;;1.97;1.67;;;;;;;;;;4957959;28;20280;-80
2023/12/31 14:46:17;;;;;;;2.50;1.40;;;;;;;;;;4970744;28;20221;-80
2023/12/31 14:48:45;;;;;;;5.57;3.50;;;;;;;;;;4989956;28;20678;-80
2023/12/31 14:51:11;;;;;;;2.83;1.80;;;;;;;;;;4969297;28;20240;-81